createdAt,value
2023-04-08T00:00:10.181Z,97.87
2023-04-08T00:02:38.074Z,97.76
2023-04-08T00:05:07.085Z,98.16
2023-04-08T00:07:35.141Z,98.41
2023-04-08T00:10:02.912Z,98.60
2023-04-08T00:12:30.860Z,98.34
2023-04-08T00:14:58.632Z,98.72
2023-04-08T00:17:28.091Z,99.12
2023-04-08T00:19:56.588Z,99.32
2023-04-08T00:22:24.402Z,99.71
2023-04-08T00:24:52.128Z,99.26
2023-04-08T00:27:19.866Z,99.49
2023-04-08T00:29:47.662Z,99.73
2023-04-08T00:32:15.511Z,98.95
2023-04-08T00:34:44.905Z,98.68
2023-04-08T00:37:12.667Z,97.20
2023-04-08T00:39:40.372Z,96.74
2023-04-08T00:42:08.180Z,96.65
2023-04-08T00:44:36.020Z,97.44
2023-04-08T00:47:05.288Z,97.24
2023-04-08T00:49:33.408Z,96.91
2023-04-08T00:52:02.606Z,97.33
2023-04-08T00:54:31.916Z,96.95
2023-04-08T00:57:01.181Z,97.21
2023-04-08T00:59:30.864Z,97.71
2023-04-08T01:02:06.336Z,96.87
2023-04-08T01:04:41.972Z,97.04
2023-04-08T01:07:16.460Z,96.45
2023-04-08T01:09:49.658Z,96.83
2023-04-08T01:12:21.915Z,96.08
2023-04-08T01:14:53.642Z,96.37
2023-04-08T01:17:23.427Z,97.07
2023-04-08T01:19:52.714Z,96.55
2023-04-08T01:22:29.829Z,96.91
2023-04-08T01:25:03.857Z,96.81
2023-04-08T01:27:34.207Z,96.74
2023-04-08T01:30:04.483Z,96.81
2023-04-08T01:32:33.723Z,96.72
2023-04-08T01:35:03.394Z,97.38
2023-04-08T01:37:34.004Z,97.04
2023-04-08T01:40:03.540Z,96.89
2023-04-08T01:42:33.653Z,96.34
2023-04-08T01:45:02.883Z,96.27
2023-04-08T01:47:31.928Z,96.22
2023-04-08T01:50:01.541Z,97.01
2023-04-08T01:52:30.430Z,96.99
2023-04-08T01:54:58.413Z,96.96
2023-04-08T01:57:32.063Z,97.22
2023-04-08T02:00:07.496Z,97.57
2023-04-08T02:02:49.030Z,97.84
2023-04-08T02:05:17.492Z,97.80
2023-04-08T02:07:46.662Z,97.77
2023-04-08T02:10:14.603Z,97.91
2023-04-08T02:12:42.447Z,97.92
2023-04-08T02:15:13.452Z,97.32
2023-04-08T02:17:46.080Z,97.09
2023-04-08T02:20:19.824Z,98.40
2023-04-08T02:22:50.782Z,96.86
2023-04-08T02:25:24.347Z,97.14
2023-04-08T02:27:53.406Z,97.20
2023-04-08T02:30:23.892Z,97.46
2023-04-08T02:32:52.757Z,97.40
2023-04-08T02:35:21.483Z,96.09
2023-04-08T02:37:49.265Z,96.36
2023-04-08T02:40:26.193Z,96.83
2023-04-08T02:42:55.118Z,97.34
2023-04-08T02:45:27.111Z,97.07
2023-04-08T02:47:55.101Z,97.18
2023-04-08T02:50:23.037Z,97.60
2023-04-08T02:52:50.843Z,97.23
2023-04-08T02:55:18.760Z,97.44
2023-04-08T02:57:49.344Z,97.38
2023-04-08T03:00:17.853Z,96.94
2023-04-08T03:02:47.145Z,96.52
2023-04-08T03:05:16.362Z,97.66
2023-04-08T03:07:44.376Z,97.19
2023-04-08T03:10:12.160Z,96.87
2023-04-08T03:12:39.941Z,97.38
2023-04-08T03:15:08.846Z,96.53
2023-04-08T03:17:36.646Z,97.42
2023-04-08T03:20:06.985Z,96.76
2023-04-08T03:22:35.817Z,96.92
2023-04-08T03:25:04.342Z,96.77
2023-04-08T03:27:32.219Z,97.88
2023-04-08T03:29:59.954Z,97.58
2023-04-08T03:32:27.950Z,97.48
2023-04-08T03:34:55.819Z,97.15
2023-04-08T03:37:25.022Z,96.80
2023-04-08T03:39:52.823Z,97.66
2023-04-08T03:42:20.549Z,96.74
2023-04-08T03:44:48.407Z,97.15
2023-04-08T03:47:16.332Z,97.24
2023-04-08T03:49:44.106Z,96.77
2023-04-08T03:52:11.886Z,97.06
2023-04-08T03:54:41.065Z,97.34
2023-04-08T03:57:09.178Z,96.95
2023-04-08T03:59:37.519Z,97.78
2023-04-08T04:02:05.526Z,97.20
2023-04-08T04:04:33.853Z,96.90
2023-04-08T04:07:01.705Z,97.19
2023-04-08T04:09:29.570Z,97.54
2023-04-08T04:11:58.705Z,97.34
2023-04-08T04:14:26.626Z,97.28
2023-04-08T04:16:54.430Z,97.52
2023-04-08T04:19:22.280Z,97.49
2023-04-08T04:21:50.006Z,96.99
2023-04-08T04:24:17.789Z,97.06
2023-04-08T04:26:45.840Z,97.41
2023-04-08T04:29:14.958Z,96.72
2023-04-08T04:31:42.820Z,97.40
2023-04-08T04:34:10.667Z,97.98
2023-04-08T04:36:38.569Z,97.89
2023-04-08T04:39:06.322Z,98.24
2023-04-08T04:41:35.247Z,97.99
2023-04-08T04:44:03.130Z,98.30
2023-04-08T04:46:32.287Z,97.56
2023-04-08T04:49:00.162Z,98.14
2023-04-08T04:51:28.161Z,98.35
2023-04-08T04:53:55.914Z,98.02
2023-04-08T04:56:23.665Z,98.25
2023-04-08T04:58:51.679Z,98.55
2023-04-08T05:01:20.048Z,98.36
2023-04-08T05:03:49.194Z,98.06
2023-04-08T05:06:16.924Z,98.14
2023-04-08T05:08:44.678Z,98.50
2023-04-08T05:11:12.608Z,98.27
2023-04-08T05:13:40.456Z,98.53
2023-04-08T05:16:08.755Z,98.86
2023-04-08T05:18:36.513Z,98.24
2023-04-08T05:21:06.171Z,98.96
2023-04-08T05:23:33.904Z,98.79
2023-04-08T05:26:01.776Z,98.35
2023-04-08T05:28:29.531Z,98.32
2023-04-08T05:30:57.259Z,98.59
2023-04-08T05:33:26.478Z,98.52
2023-04-08T05:35:54.300Z,98.77
2023-04-08T05:38:23.523Z,98.47
2023-04-08T05:40:51.438Z,97.95
2023-04-08T05:43:19.211Z,99.09
2023-04-08T05:45:47.060Z,97.75
2023-04-08T05:48:14.788Z,98.38
2023-04-08T05:50:43.062Z,97.79
2023-04-08T05:53:10.881Z,97.86
2023-04-08T05:55:40.019Z,98.09
2023-04-08T05:58:08.024Z,97.78
2023-04-08T06:00:35.855Z,97.23
2023-04-08T06:03:03.859Z,97.65
2023-04-08T06:05:32.729Z,97.76
2023-04-08T06:08:00.905Z,96.09
2023-04-08T06:10:28.710Z,96.71
2023-04-08T06:12:57.781Z,96.80
2023-04-08T06:15:25.554Z,95.50
2023-04-08T06:17:53.344Z,95.44
2023-04-08T06:20:21.128Z,94.88
2023-04-08T06:22:48.868Z,94.93
2023-04-08T06:25:17.036Z,95.15
2023-04-08T06:27:45.064Z,94.75
2023-04-08T06:30:14.352Z,94.19
2023-04-08T06:32:42.144Z,94.88
2023-04-08T06:35:10.067Z,94.83
2023-04-08T06:37:38.678Z,93.95
2023-04-08T06:40:07.881Z,93.69
2023-04-08T06:42:36.449Z,93.75
2023-04-08T06:45:17.842Z,93.19
2023-04-08T06:47:45.658Z,93.59
2023-04-08T06:50:13.333Z,93.38
2023-04-08T06:52:41.093Z,94.03
2023-04-08T06:55:09.608Z,92.93
2023-04-08T06:57:37.397Z,93.12
2023-04-08T07:00:06.807Z,92.22
2023-04-08T07:02:36.034Z,92.61
2023-04-08T07:05:04.018Z,92.44
2023-04-08T07:07:32.097Z,92.27
2023-04-08T07:09:59.838Z,92.42
2023-04-08T07:12:27.792Z,92.07
2023-04-08T07:14:55.548Z,91.35
2023-04-08T07:17:23.316Z,91.46
2023-04-08T07:19:52.431Z,91.09
2023-04-08T07:22:20.173Z,90.58
2023-04-08T07:24:49.723Z,90.58
2023-04-08T07:27:17.643Z,90.90
2023-04-08T07:29:45.370Z,91.51
2023-04-08T07:32:13.062Z,91.18
2023-04-08T07:34:41.119Z,91.51
2023-04-08T07:37:10.195Z,90.23
2023-04-08T07:39:37.916Z,91.52
2023-04-08T07:42:06.026Z,90.82
2023-04-08T07:44:33.703Z,90.75
2023-04-08T07:47:01.501Z,90.03
2023-04-08T07:49:29.206Z,90.45
2023-04-08T07:51:57.513Z,91.12
2023-04-08T07:54:26.753Z,90.85
2023-04-08T07:56:54.506Z,90.17
2023-04-08T07:59:22.408Z,88.82
2023-04-08T08:01:50.182Z,89.84
2023-04-08T08:04:18.326Z,88.74
2023-04-08T08:06:46.299Z,88.25
2023-04-08T08:09:14.457Z,88.08
2023-04-08T08:11:43.573Z,88.56
2023-04-08T08:14:11.772Z,88.05
2023-04-08T08:16:39.678Z,88.39
2023-04-08T08:19:08.807Z,88.05
2023-04-08T08:21:37.992Z,87.42
2023-04-08T08:24:05.908Z,86.10
2023-04-08T08:26:36.725Z,86.01
2023-04-08T08:29:08.582Z,85.51
2023-04-08T08:31:36.607Z,85.26
2023-04-08T08:34:04.361Z,86.17
2023-04-08T08:36:33.463Z,85.07
2023-04-08T08:39:02.317Z,84.35
2023-04-08T08:41:34.521Z,84.49
2023-04-08T08:44:06.250Z,84.36
2023-04-08T08:46:34.519Z,82.63
2023-04-08T08:49:03.070Z,83.06
2023-04-08T08:51:32.594Z,83.69
2023-04-08T08:54:04.179Z,84.06
2023-04-08T08:56:34.327Z,82.71
2023-04-08T08:59:02.369Z,82.38
2023-04-08T09:01:36.337Z,81.74
2023-04-08T09:04:16.904Z,82.07
2023-04-08T09:06:46.654Z,83.47
2023-04-08T09:09:14.894Z,83.27
2023-04-08T09:11:44.253Z,80.23
2023-04-08T09:14:20.612Z,80.06
2023-04-08T09:16:50.280Z,79.43
2023-04-08T09:19:18.208Z,80.09
2023-04-08T09:21:46.111Z,78.76
2023-04-08T09:24:29.378Z,79.34
2023-04-08T09:26:57.342Z,78.32
2023-04-08T09:29:27.648Z,77.86
2023-04-08T09:31:59.652Z,76.94
2023-04-08T09:34:28.587Z,77.08
2023-04-08T09:36:56.890Z,74.99
2023-04-08T09:39:24.947Z,76.03
2023-04-08T09:41:53.623Z,75.70
2023-04-08T09:44:23.081Z,75.28
2023-04-08T09:47:03.113Z,71.72
2023-04-08T09:49:35.440Z,70.29
2023-04-08T09:52:08.721Z,72.60
2023-04-08T09:54:45.453Z,71.36
2023-04-08T09:57:17.269Z,70.00
2023-04-08T09:59:53.641Z,69.93
2023-04-08T10:02:31.223Z,66.20
2023-04-08T10:05:01.230Z,65.39
2023-04-08T10:07:28.966Z,64.85
2023-04-08T10:09:58.325Z,65.36
2023-04-08T10:12:26.409Z,65.57
2023-04-08T10:15:24.705Z,65.91
2023-04-08T10:17:54.402Z,67.02
2023-04-08T10:20:45.115Z,65.77
2023-04-08T10:23:14.022Z,63.14
2023-04-08T10:25:42.866Z,63.86
2023-04-08T10:28:27.296Z,63.37
2023-04-08T10:30:56.708Z,61.21
2023-04-08T10:33:47.836Z,63.17
2023-04-08T10:36:16.533Z,62.17
2023-04-08T10:38:44.297Z,63.50
2023-04-08T10:41:13.942Z,63.23
2023-04-08T10:43:41.777Z,62.30
2023-04-08T10:46:11.797Z,61.26
2023-04-08T10:48:41.023Z,62.25
2023-04-08T10:51:08.807Z,63.75
2023-04-08T10:53:39.089Z,64.30
2023-04-08T10:56:07.997Z,64.12
2023-04-08T10:58:36.451Z,65.02
2023-04-08T11:01:06.752Z,66.06
2023-04-08T11:03:36.091Z,65.28
2023-04-08T11:06:06.102Z,65.80
2023-04-08T11:08:35.397Z,65.55
2023-04-08T11:11:04.163Z,65.86
2023-04-08T11:13:32.376Z,66.85
2023-04-08T11:16:01.186Z,65.99
2023-04-08T11:18:29.425Z,67.23
2023-04-08T11:21:00.199Z,67.38
2023-04-08T11:23:30.068Z,67.51
2023-04-08T11:25:58.689Z,68.25
2023-04-08T11:28:27.077Z,68.32
2023-04-08T11:30:55.720Z,68.07
2023-04-08T11:33:27.024Z,69.02
2023-04-08T11:35:55.393Z,68.57
2023-04-08T11:38:24.508Z,68.47
2023-04-08T11:40:55.508Z,66.69
2023-04-08T11:43:23.818Z,65.98
2023-04-08T11:45:51.943Z,65.45
2023-04-08T11:48:19.800Z,65.25
2023-04-08T11:50:47.572Z,65.00
2023-04-08T11:53:19.644Z,62.75
2023-04-08T11:55:48.488Z,63.02
2023-04-08T11:58:17.682Z,62.77
2023-04-08T12:00:46.032Z,61.32
2023-04-08T12:03:14.445Z,60.98
2023-04-08T12:05:42.507Z,60.80
2023-04-08T12:08:10.453Z,60.28
2023-04-08T12:10:38.613Z,60.76
2023-04-08T12:13:06.717Z,61.33
2023-04-08T12:15:35.776Z,60.84
2023-04-08T12:18:03.516Z,60.37
2023-04-08T12:20:31.228Z,60.66
2023-04-08T12:22:59.017Z,59.79
2023-04-08T12:25:27.701Z,60.25
2023-04-08T12:27:55.499Z,59.97
2023-04-08T12:30:23.360Z,59.99
2023-04-08T12:32:55.105Z,60.67
2023-04-08T12:35:23.061Z,60.69
2023-04-08T12:37:50.868Z,61.32
2023-04-08T12:40:19.236Z,61.61
2023-04-08T12:42:48.527Z,62.57
2023-04-08T12:45:16.517Z,63.56
2023-04-08T12:47:44.435Z,63.13
2023-04-08T12:50:13.848Z,64.34
2023-04-08T12:52:41.644Z,66.06
2023-04-08T12:55:10.265Z,64.86
2023-04-08T12:57:38.079Z,63.21
2023-04-08T13:00:07.009Z,63.56
2023-04-08T13:02:34.955Z,64.41
2023-04-08T13:05:02.967Z,65.25
2023-04-08T13:07:32.101Z,65.49
2023-04-08T13:09:59.827Z,65.43
2023-04-08T13:12:27.615Z,65.86
2023-04-08T13:14:55.377Z,65.43
2023-04-08T13:17:23.086Z,65.60
2023-04-08T13:19:51.116Z,65.05
2023-04-08T13:22:19.125Z,65.13
2023-04-08T13:24:48.315Z,66.10
2023-04-08T13:27:16.082Z,65.15
2023-04-08T13:29:43.880Z,65.16
2023-04-08T13:32:11.717Z,65.58
2023-04-08T13:34:39.536Z,65.76
2023-04-08T13:37:07.291Z,65.18
2023-04-08T13:39:35.033Z,64.56
2023-04-08T13:42:04.244Z,64.50
2023-04-08T13:44:33.130Z,64.66
2023-04-08T13:47:00.917Z,64.61
2023-04-08T13:49:28.708Z,64.39
2023-04-08T13:51:56.507Z,64.34
2023-04-08T13:54:24.290Z,64.14
2023-04-08T13:56:51.988Z,63.42
2023-04-08T13:59:21.118Z,63.76
2023-04-08T14:01:49.050Z,64.34
2023-04-08T14:04:16.954Z,63.64
2023-04-08T14:06:45.180Z,63.65
2023-04-08T14:09:12.952Z,63.20
2023-04-08T14:11:41.124Z,63.72
2023-04-08T14:14:08.886Z,62.68
2023-04-08T14:16:38.147Z,63.82
2023-04-08T14:19:06.345Z,62.92
2023-04-08T14:21:34.174Z,64.09
2023-04-08T14:24:02.784Z,64.54
2023-04-08T14:26:31.044Z,63.69
2023-04-08T14:28:58.754Z,63.47
2023-04-08T14:31:26.571Z,63.78
2023-04-08T14:33:56.260Z,62.95
2023-04-08T14:36:24.549Z,63.15
2023-04-08T14:38:52.664Z,62.57
2023-04-08T14:41:21.373Z,62.48
2023-04-08T14:43:49.453Z,62.72
2023-04-08T14:46:17.666Z,62.29
2023-04-08T14:48:45.377Z,63.02
2023-04-08T14:51:14.573Z,62.79
2023-04-08T14:53:42.360Z,62.88
2023-04-08T14:56:10.380Z,62.19
2023-04-08T14:58:38.214Z,61.53
2023-04-08T15:01:06.382Z,60.76
2023-04-08T15:03:34.306Z,61.80
2023-04-08T15:06:02.632Z,63.01
2023-04-08T15:08:31.828Z,61.39
2023-04-08T15:10:59.615Z,62.70
2023-04-08T15:13:27.361Z,62.76
2023-04-08T15:15:55.362Z,62.75
2023-04-08T15:18:23.206Z,62.67
2023-04-08T15:20:51.570Z,63.12
2023-04-08T15:23:19.327Z,62.64
2023-04-08T15:25:48.404Z,62.41
2023-04-08T15:28:16.206Z,63.21
2023-04-08T15:30:44.633Z,63.13
2023-04-08T15:33:12.421Z,64.00
2023-04-08T15:35:40.266Z,64.36
2023-04-08T15:38:08.466Z,63.35
2023-04-08T15:40:36.505Z,64.09
2023-04-08T15:43:05.582Z,63.69
2023-04-08T15:45:33.459Z,64.24
2023-04-08T15:48:01.281Z,64.48
2023-04-08T15:50:30.933Z,64.76
2023-04-08T15:52:58.813Z,64.78
2023-04-08T15:55:26.615Z,64.39
2023-04-08T15:57:56.600Z,63.68
2023-04-08T16:00:26.091Z,63.64
2023-04-08T16:02:54.030Z,63.26
2023-04-08T16:05:22.193Z,63.79
2023-04-08T16:07:50.087Z,62.92
2023-04-08T16:10:17.908Z,63.16
2023-04-08T16:12:46.274Z,62.79
2023-04-08T16:15:14.318Z,63.71
2023-04-08T16:17:43.512Z,62.74
2023-04-08T16:20:12.258Z,62.43
2023-04-08T16:22:40.000Z,62.31
2023-04-08T16:25:08.522Z,62.91
2023-04-08T16:27:36.983Z,63.06
2023-04-08T16:30:05.485Z,63.33
2023-04-08T16:32:33.271Z,63.43
2023-04-08T16:35:02.470Z,63.54
2023-04-08T16:37:30.417Z,64.19
2023-04-08T16:39:58.261Z,64.41
2023-04-08T16:42:26.019Z,63.61
2023-04-08T16:44:57.087Z,64.31
2023-04-08T16:47:25.072Z,64.69
2023-04-08T16:49:53.311Z,64.47
2023-04-08T16:52:23.097Z,64.90
2023-04-08T16:54:51.096Z,64.31
2023-04-08T16:57:19.005Z,65.40
2023-04-08T16:59:47.129Z,65.70
2023-04-08T17:02:14.943Z,65.75
2023-04-08T17:04:42.888Z,65.62
2023-04-08T17:07:11.060Z,66.30
2023-04-08T17:09:41.191Z,66.16
2023-04-08T17:12:08.985Z,66.86
2023-04-08T17:14:36.939Z,66.68
2023-04-08T17:17:04.663Z,66.71
2023-04-08T17:19:32.536Z,67.06
2023-04-08T17:22:00.353Z,67.00
2023-04-08T17:24:28.608Z,67.57
2023-04-08T17:26:58.434Z,67.77
2023-04-08T17:29:26.789Z,67.65
2023-04-08T17:31:54.503Z,67.86
2023-04-08T17:34:22.574Z,68.86
2023-04-08T17:36:50.478Z,70.73
2023-04-08T17:39:18.394Z,72.42
2023-04-08T17:41:46.178Z,75.50
2023-04-08T17:44:15.440Z,78.43
2023-04-08T17:46:43.157Z,79.64
2023-04-08T17:49:12.835Z,79.77
2023-04-08T17:51:40.874Z,79.86
2023-04-08T17:54:08.702Z,81.17
2023-04-08T17:56:36.443Z,81.19
2023-04-08T17:59:04.176Z,83.54
2023-04-08T18:01:33.864Z,84.26
2023-04-08T18:04:01.980Z,82.78
2023-04-08T18:06:31.926Z,81.25
2023-04-08T18:08:59.768Z,83.96
2023-04-08T18:11:27.586Z,84.41
2023-04-08T18:13:55.383Z,84.62
2023-04-08T18:16:23.540Z,84.82
2023-04-08T18:18:52.805Z,85.10
2023-04-08T18:21:22.073Z,85.83
2023-04-08T18:23:51.068Z,85.90
2023-04-08T18:26:19.018Z,86.32
2023-04-08T18:28:46.716Z,86.21
2023-04-08T18:31:14.519Z,86.89
2023-04-08T18:33:42.933Z,87.20
2023-04-08T18:36:13.829Z,86.47
2023-04-08T18:38:41.806Z,87.26
2023-04-08T18:41:09.888Z,87.88
2023-04-08T18:43:37.593Z,88.45
2023-04-08T18:46:05.687Z,89.00
2023-04-08T18:48:33.703Z,89.57
2023-04-08T18:51:01.757Z,89.51
2023-04-08T18:53:30.871Z,90.44
2023-04-08T18:55:58.772Z,90.15
2023-04-08T18:58:27.121Z,89.93
2023-04-08T19:00:54.979Z,89.26
2023-04-08T19:03:22.895Z,89.49
2023-04-08T19:05:51.479Z,89.81
2023-04-08T19:08:19.212Z,89.13
2023-04-08T19:10:48.328Z,88.71
2023-04-08T19:13:16.114Z,88.05
2023-04-08T19:15:43.947Z,87.87
2023-04-08T19:18:11.909Z,88.18
2023-04-08T19:20:39.672Z,87.17
2023-04-08T19:23:07.417Z,87.30
2023-04-08T19:25:35.571Z,87.98
2023-04-08T19:28:05.885Z,87.15
2023-04-08T19:30:37.222Z,88.07
2023-04-08T19:33:05.145Z,87.02
2023-04-08T19:35:32.895Z,86.14
2023-04-08T19:38:00.691Z,86.15
2023-04-08T19:40:28.478Z,88.20
2023-04-08T19:42:56.307Z,87.47
2023-04-08T19:45:25.631Z,88.35
2023-04-08T19:47:53.435Z,87.58
2023-04-08T19:50:22.262Z,88.52
2023-04-08T19:52:49.963Z,87.57
2023-04-08T19:55:18.631Z,87.53
2023-04-08T19:57:46.396Z,88.28
2023-04-08T20:00:14.462Z,88.55
2023-04-08T20:02:44.215Z,88.38
2023-04-08T20:05:14.769Z,89.39
2023-04-08T20:07:42.755Z,88.40
2023-04-08T20:10:12.314Z,88.48
2023-04-08T20:12:40.868Z,87.86
2023-04-08T20:15:22.986Z,88.96
2023-04-08T20:17:54.058Z,88.71
2023-04-08T20:20:22.638Z,89.29
2023-04-08T20:22:50.774Z,87.84
2023-04-08T20:25:18.885Z,88.86
2023-04-08T20:27:46.660Z,87.63
2023-04-08T20:30:14.591Z,88.22
2023-04-08T20:32:42.628Z,87.80
2023-04-08T20:35:12.026Z,88.07
2023-04-08T20:37:39.801Z,89.45
2023-04-08T20:40:10.579Z,89.65
2023-04-08T20:42:38.634Z,89.19
2023-04-08T20:45:07.647Z,89.22
2023-04-08T20:47:35.608Z,89.05
2023-04-08T20:50:03.605Z,89.17
2023-04-08T20:52:32.737Z,88.33
2023-04-08T20:55:00.848Z,88.44
2023-04-08T20:57:28.644Z,89.35
2023-04-08T20:59:56.370Z,89.33
2023-04-08T21:02:24.404Z,89.89
2023-04-08T21:04:52.391Z,88.87
2023-04-08T21:07:20.250Z,87.96
2023-04-08T21:09:49.575Z,87.57
2023-04-08T21:12:17.342Z,87.36
2023-04-08T21:14:46.188Z,87.82
2023-04-08T21:17:14.196Z,88.14
2023-04-08T21:19:42.543Z,89.01
2023-04-08T21:22:10.441Z,88.68
2023-04-08T21:24:38.274Z,88.47
2023-04-08T21:27:07.647Z,88.46
2023-04-08T21:29:35.391Z,87.62
2023-04-08T21:32:03.351Z,88.02
2023-04-08T21:34:31.142Z,85.57
2023-04-08T21:36:58.847Z,86.49
2023-04-08T21:39:26.661Z,88.06
2023-04-08T21:41:54.496Z,87.87
2023-04-08T21:44:23.804Z,87.07
2023-04-08T21:46:51.634Z,86.86
2023-04-08T21:49:19.408Z,85.71
2023-04-08T21:51:47.165Z,85.04
2023-04-08T21:54:14.937Z,84.61
2023-04-08T21:56:43.442Z,85.64
2023-04-08T21:59:11.163Z,85.78
2023-04-08T22:01:40.598Z,85.77
2023-04-08T22:04:08.587Z,84.61
2023-04-08T22:06:36.437Z,83.59
2023-04-08T22:09:04.526Z,84.75
2023-04-08T22:11:32.417Z,85.63
2023-04-08T22:14:00.256Z,85.01
2023-04-08T22:16:28.152Z,85.23
2023-04-08T22:18:57.275Z,86.83
2023-04-08T22:21:25.828Z,86.91
2023-04-08T22:23:53.528Z,87.06
2023-04-08T22:26:21.567Z,87.59
2023-04-08T22:28:49.498Z,87.74
2023-04-08T22:31:17.448Z,86.98
2023-04-08T22:33:46.108Z,86.55
2023-04-08T22:36:15.980Z,87.35
2023-04-08T22:38:43.921Z,86.98
2023-04-08T22:41:18.779Z,87.28
2023-04-08T22:43:46.895Z,88.21
2023-04-08T22:46:15.453Z,87.36
2023-04-08T22:48:43.363Z,87.41
2023-04-08T22:51:11.578Z,87.52
2023-04-08T22:53:41.056Z,88.35
2023-04-08T22:56:08.841Z,88.58
2023-04-08T22:58:36.634Z,88.84
2023-04-08T23:01:11.899Z,89.75
2023-04-08T23:03:39.821Z,88.83
2023-04-08T23:06:07.711Z,89.77
2023-04-08T23:08:35.546Z,89.05
2023-04-08T23:11:04.765Z,89.47
2023-04-08T23:13:32.583Z,90.29
2023-04-08T23:16:01.376Z,90.01
2023-04-08T23:18:29.347Z,89.92
2023-04-08T23:20:58.175Z,89.88
2023-04-08T23:23:26.483Z,89.67
2023-04-08T23:25:55.833Z,88.85
2023-04-08T23:28:25.436Z,89.94
2023-04-08T23:30:53.451Z,89.95
2023-04-08T23:33:21.327Z,89.48
2023-04-08T23:35:49.210Z,90.17
2023-04-08T23:38:17.149Z,89.82
2023-04-08T23:40:44.988Z,89.82
2023-04-08T23:43:12.838Z,89.83
2023-04-08T23:45:42.013Z,91.17
2023-04-08T23:48:10.223Z,90.97
2023-04-08T23:50:38.169Z,90.95
2023-04-08T23:53:06.204Z,91.09
2023-04-08T23:55:34.115Z,90.88
2023-04-08T23:58:01.980Z,91.83
